• Join FlightAware (Why Join?)
  • Login
  • US Flag 
02:58PM EDT


 

Airport Tracker/Info


-or-


 

Live Flight TrackerFlight Track Log ✈ DAL1781 ✈ 15-Jan-2014 ✈ KMSP - KATL

Flight Track Log - Related Links

Times and Time Zones

All times are in EST time to prevent confusion due to time zone crossing. See the DAL1781 flight status page for this flight to view local times or setup timezone preferences in your user account.

Time Position Orientation Groundspeed Altitude Reporting Facility
EST Latitude Longitude Course Direction KTS MPH feet Rate Location/Type
04:40PM 44.8333 -93.1833 133° Southeast 203 234 3,200  Level Minneapolis TRACON
04:41PM 44.6784 -93.0282 137° Southeast  Level Estimated
04:41PM 44.7833 -93.1167 137° Southeast 264 304 5,200  Level Minneapolis TRACON
04:42PM 44.5764 -92.9319 141° Southeast  Level Estimated
04:42PM 44.7186 -93.0342 138° Southeast 281 323 7,900  Level Minneapolis Center
04:43PM 44.4744 -92.8359 133° Southeast  Level Estimated
04:43PM 44.6608 -92.9419 131° Southeast 311 358 10,000  Level Minneapolis Center
04:44PM 44.3723 -92.7403 120° Southeast  Level Estimated
04:44PM 44.5858 -92.8081 128° Southeast 368 423 11,800  Level Minneapolis Center
04:45PM 44.2702 -92.6450 133° Southeast  Level Estimated
04:45PM 44.5217 -92.6789 125° Southeast 405 466 13,400  Level Minneapolis Center
04:51PM 44.1058 -91.8517 125° Southeast 492 566 22,600 1,500 Climbing FlightAware ADS-B
04:54PM 43.8224 -91.3452 128° Southeast 507 583 27,100 1,200 Climbing FlightAware ADS-B
04:55PM 43.7386 -91.2289 135° Southeast 523 602 27,700 660 Climbing FlightAware ADS-B
05:00PM 43.1473 -90.7214 148° Southeast 523 602 31,000 540 Climbing FlightAware ADS-B (KMDW)
05:00PM 43.0530 -90.6980 170° South 525 604 31,000  Level FlightAware ADS-B (KMDW)
05:01PM 43.0408 -90.6942 167° South 527 606 31,000  Level FlightAware ADS-B (KMDW)
05:02PM 42.9069 -90.6478 166° South 527 606 31,000  Level FlightAware ADS-B (KMDW)
05:02PM 42.8267 -90.6189 165° South 527 606 31,000  Level FlightAware ADS-B (KMDW)
05:03PM 42.7215 -90.5813 165° South 529 609 31,000  Level FlightAware ADS-B (KMDW)
05:03PM 42.6428 -90.5533 165° South 530 610 31,000  Level FlightAware ADS-B (KMDW)
05:04PM 42.5389 -90.5167 165° South 531 611 31,000  Level FlightAware ADS-B (KMDW)
05:05PM 42.4474 -90.4845 165° South 531 611 31,000  Level FlightAware ADS-B (KMDW)
05:05PM 42.3661 -90.4561 166° South 531 611 31,000  Level FlightAware ADS-B (KMDW)
05:06PM 42.3076 -90.4358 166° South 531 611 31,000  Level FlightAware ADS-B
05:07PM 42.0844 -90.3584 166° South 534 615 31,000  Level FlightAware ADS-B
05:08PM 42.0080 -90.3318 166° South 535 616 31,000  Level FlightAware ADS-B (KMDW)
05:08PM 41.9194 -90.3014 166° South 536 617 31,000  Level FlightAware ADS-B
05:09PM 41.8670 -90.2832 166° South 537 618 31,000  Level FlightAware ADS-B
05:10PM 41.9430 -90.3095 346° North 538 619 31,000  Level FlightAware ADS-B (KMDW)
05:13PM 41.2842 -90.0851 166° South 543 625 31,000  Level FlightAware ADS-B (KMDW)
05:13PM 41.1820 -90.0505 166° South 543 625 31,000  Level FlightAware ADS-B (KMDW)
05:14PM 41.1782 -90.0492 166° South 543 625 31,000  Level FlightAware ADS-B (KMDW)
05:16PM 40.8026 -89.8723 160° South 544 626 31,000  Level FlightAware ADS-B (KMDW)
05:17PM 40.6803 -89.8126 160° South 545 627 31,000  Level FlightAware ADS-B
05:18PM 40.5983 -89.7731 160° South 546 628 31,000  Level FlightAware ADS-B
05:19PM 40.4196 -89.6880 160° South 545 627 31,000  Level FlightAware ADS-B
05:19PM 40.3597 -89.6594 160° South 544 626 31,000  Level FlightAware ADS-B (KPWK)
05:20PM 40.3597 -89.6594 160° South 545 627 31,000  Level FlightAware ADS-B (KPWK)
05:22PM 39.9979 -89.4876 160° South 545 627 31,000  Level FlightAware ADS-B (KPWK)
05:23PM 39.9023 -89.4425 160° South 544 626 31,000  Level FlightAware ADS-B (KPWK)
05:23PM 39.8016 -89.3952 160° South 544 626 31,000  Level FlightAware ADS-B (KPWK)
05:24PM 39.7046 -89.3496 160° South 545 627 31,000  Level FlightAware ADS-B (KPWK)
05:25PM 39.6197 -89.3099 160° South 546 628 31,000  Level FlightAware ADS-B (KPWK)
05:25PM 39.5501 -89.2745 159° South 543 625 31,000  Level FlightAware ADS-B (KPWK)
05:26PM 39.4214 -89.1863 152° Southeast 542 624 31,000  Level FlightAware ADS-B (KPWK)
05:27PM 39.3397 -89.1190 148° Southeast 540 621 31,000  Level FlightAware ADS-B (KPWK)
05:27PM 39.2666 -89.0583 147° Southeast 540 621 31,000  Level FlightAware ADS-B (KPWK)
05:28PM 39.1663 -88.9763 148° Southeast 540 621 31,000  Level FlightAware ADS-B (KPWK)
05:29PM 39.0896 -88.9144 148° Southeast 540 621 31,000  Level FlightAware ADS-B (KPWK)
05:29PM 38.9979 -88.8411 148° Southeast 541 623 31,000  Level FlightAware ADS-B (KPWK)
05:30PM 38.9065 -88.7684 148° Southeast 541 623 31,000  Level FlightAware ADS-B (KPWK)
05:31PM 38.8219 -88.7012 148° Southeast 541 623 31,000  Level FlightAware ADS-B (KPWK)
05:31PM 38.7375 -88.6344 148° Southeast 543 625 31,000  Level FlightAware ADS-B (KPWK)
05:32PM 38.6535 -88.5681 148° Southeast 544 626 31,000  Level FlightAware ADS-B (KPWK)
05:33PM 38.5636 -88.4988 149° Southeast 544 626 31,000  Level FlightAware ADS-B (KPWK)
05:33PM 38.4783 -88.4334 149° Southeast 542 624 31,000 -420 Level FlightAware ADS-B (KPWK)
05:34PM 38.3548 -88.3388 149° Southeast 524 603 30,400 -1,140 Descending FlightAware ADS-B (KPWK)
05:35PM 38.2711 -88.2744 149° Southeast 531 611 29,100 -1,080 Descending FlightAware ADS-B (KPWK)
05:36PM 38.1850 -88.2082 149° Southeast 539 620 29,000 -120 Descending FlightAware ADS-B (KPWK)
05:36PM 38.0936 -88.1388 149° Southeast 538 619 29,000  Level FlightAware ADS-B (KPWK)
05:37PM 38.0019 -88.0692 149° Southeast 539 620 29,000  Level FlightAware ADS-B (KPWK)
05:38PM 38.0019 -88.0692 149° Southeast 540 621 29,000  Level FlightAware ADS-B (KPWK)
05:43PM 37.2692 -87.5186 149° Southeast 540 621 29,000  Level FlightAware ADS-B (KEKX)
05:48PM 36.5829 -87.0123 149° Southeast 534 615 29,000  Level FlightAware ADS-B (KEKX)
05:49PM 36.5070 -86.9569 150° Southeast 527 606 29,000  Level FlightAware ADS-B (KEKX)
05:50PM 36.3619 -86.8467 150° Southeast 525 604 29,000  Level Indianapolis Center
05:51PM 36.2383 -86.7581 150° Southeast 514 592 29,000  Level Indianapolis Center
05:52PM 36.1344 -86.6825 150° Southeast 511 588 29,000  Level Memphis Center
05:53PM 35.9967 -86.5686 146° Southeast 507 583 29,000  Level Memphis Center
05:54PM 35.8775 -86.4744 147° Southeast 503 579 29,000  Level Memphis Center
05:55PM 35.7600 -86.3794 147° Southeast 502 578 29,000  Level Memphis Center
05:56PM 35.6444 -86.2869 147° Southeast 494 568 29,000  Level Memphis Center
05:57PM 35.5428 -86.2056 147° Southeast 508 585 29,000  Level Atlanta Center
05:58PM 35.4297 -86.1136 146° Southeast 498 573 29,000  Level Atlanta Center
05:59PM 35.3164 -86.0217 146° Southeast 493 567 29,000  Level Atlanta Center
06:00PM 35.2008 -85.9322 148° Southeast 493 567 29,000  Level Atlanta Center
06:01PM 35.0792 -85.8358 147° Southeast 488 562 29,000  Level Atlanta Center
06:02PM 34.9700 -85.7497 147° Southeast 483 556 29,000  Level Atlanta Center
06:03PM 34.8606 -85.6614 146° Southeast 478 550 29,000 -300 Level Atlanta Center
06:04PM 34.7489 -85.5783 149° Southeast 472 543 28,500 -840 Descending Atlanta Center
06:05PM 34.6394 -85.4906 147° Southeast 472 543 27,400 -1,800 Descending Atlanta Center
06:06PM 34.5317 -85.4106 149° Southeast 472 543 25,000 -2,400 Descending Atlanta Center
06:07PM 34.4283 -85.3281 147° Southeast 467 537 22,600 -2,340 Descending Atlanta Center
06:08PM 34.3414 -85.2539 145° Southeast 445 512 20,400 -2,280 Descending Atlanta Center
06:09PM 34.2461 -85.1847 149° Southeast 420 483 18,100 -2,220 Descending Atlanta Center
06:10PM 34.1592 -85.1108 145° Southeast 398 458 16,000 -2,040 Descending Atlanta Center
06:11PM 34.0867 -85.0219 135° Southeast 379 436 14,100 -1,020 Descending Atlanta Center
06:12PM 34.0228 -84.9386 133° Southeast 348 400 14,000 -540 Descending Atlanta Center
06:13PM 33.9586 -84.8578 134° Southeast 313 360 13,100 -480 Descending Atlanta Center
06:14PM 33.8983 -84.7847 135° Southeast 303 349 13,100  Level Atlanta Center
06:15PM 33.8500 -84.7167 131° Southeast 305 351 13,100 -180 Level Atlanta TRACON
06:16PM 33.7833 -84.6500 140° Southeast 305 351 12,800 -1,020 Descending Atlanta TRACON
06:17PM 33.7333 -84.5667 126° Southeast 307 353 11,100 -1,440 Descending Atlanta TRACON
06:18PM 33.7333 -84.4667 90° East 298 343 10,000 -1,320 Descending Atlanta TRACON
06:19PM 33.7333 -84.3833 90° East 264 304 8,600 -1,800 Descending Atlanta TRACON
06:20PM 33.7333 -84.3000 90° East 245 282 6,600 -1,740 Descending Atlanta TRACON
06:21PM 33.7333 -84.2167 90° East 239 275 5,200 -840 Descending Atlanta TRACON
06:22PM 33.7333 -84.1500 90° East 209 241 5,100 -60 Descending Atlanta TRACON
06:23PM 33.7000 -84.1167 140° Southeast 202 232 5,100  Level Atlanta TRACON
06:24PM 33.6667 -84.1333 203° Southwest 172 198 5,100 -120 Level Atlanta TRACON
06:25PM 33.6500 -84.1833 248° West 167 192 4,900 -600 Descending Atlanta TRACON
06:26PM 33.6500 -84.2500 270° West 161 185 3,900 -960 Descending Atlanta TRACON
06:27PM 33.6500 -84.3000 270° West 162 186 3,000 -900 Descending Atlanta TRACON
06:28PM 33.6500 -84.3500 270° West 132 152 2,200 -840 Descending Atlanta TRACON
06:29PM 33.6500 -84.3833 270° West 141 162 1,400 -840 Descending Atlanta TRACON